sensor_id;sensor_type;location;lat;lon;timestamp;pressure;altitude;pressure_sealevel;temperature;humidity
42433;BME280;28071;48.232;20.668;2023-09-18T00:02:30;99881.91;;;16.04;100.00
42433;BME280;28071;48.232;20.668;2023-09-18T00:07:31;99939.97;;;16.27;100.00
42433;BME280;28071;48.232;20.668;2023-09-18T00:12:31;99939.97;;;16.27;100.00
42433;BME280;28071;48.232;20.668;2023-09-18T00:17:32;99943.22;;;16.12;100.00
42433;BME280;28071;48.232;20.668;2023-09-18T00:22:33;99940.34;;;16.02;100.00
42433;BME280;28071;48.232;20.668;2023-09-18T00:27:33;99923.28;;;15.91;100.00
42433;BME280;28071;48.232;20.668;2023-09-18T00:32:36;99936.28;;;15.82;100.00
42433;BME280;28071;48.232;20.668;2023-09-18T00:37:36;99912.44;;;15.69;100.00
42433;BME280;28071;48.232;20.668;2023-09-18T00:42:37;99921.66;;;15.73;100.00
42433;BME280;28071;48.232;20.668;2023-09-18T00:47:37;99901.00;;;15.74;100.00
42433;BME280;28071;48.232;20.668;2023-09-18T00:52:38;99933.69;;;15.88;100.00
42433;BME280;28071;48.232;20.668;2023-09-18T00:57:39;99928.09;;;15.89;100.00
42433;BME280;28071;48.232;20.668;2023-09-18T01:02:39;99938.00;;;15.89;100.00
42433;BME280;28071;48.232;20.668;2023-09-18T01:07:40;99920.50;;;15.86;100.00
42433;BME280;28071;48.232;20.668;2023-09-18T01:12:53;99900.19;;;15.73;100.00
42433;BME280;28071;48.232;20.668;2023-09-18T01:17:55;99912.41;;;15.81;100.00
42433;BME280;28071;48.232;20.668;2023-09-18T01:22:56;99940.19;;;16.08;100.00
42433;BME280;28071;48.232;20.668;2023-09-18T01:27:56;99905.22;;;15.87;100.00
42433;BME280;28071;48.232;20.668;2023-09-18T01:32:58;99935.06;;;16.07;100.00
42433;BME280;28071;48.232;20.668;2023-09-18T01:37:59;99911.00;;;15.78;100.00
42433;BME280;28071;48.232;20.668;2023-09-18T01:43:00;99926.38;;;15.83;100.00
42433;BME280;28071;48.232;20.668;2023-09-18T01:48:04;99923.69;;;16.00;100.00
42433;BME280;28071;48.232;20.668;2023-09-18T01:53:04;99942.81;;;16.03;100.00
42433;BME280;28071;48.232;20.668;2023-09-18T01:58:05;99935.31;;;16.05;100.00
42433;BME280;28071;48.232;20.668;2023-09-18T02:03:05;99936.44;;;16.09;100.00
42433;BME280;28071;48.232;20.668;2023-09-18T02:08:05;99938.31;;;16.09;100.00
42433;BME280;28071;48.232;20.668;2023-09-18T02:13:06;99935.00;;;16.19;100.00
42433;BME280;28071;48.232;20.668;2023-09-18T02:18:06;99890.75;;;15.71;100.00
42433;BME280;28071;48.232;20.668;2023-09-18T02:23:07;99922.16;;;16.04;100.00
42433;BME280;28071;48.232;20.668;2023-09-18T02:28:07;99909.38;;;15.94;100.00
42433;BME280;28071;48.232;20.668;2023-09-18T02:33:08;99923.22;;;16.03;100.00
42433;BME280;28071;48.232;20.668;2023-09-18T02:38:09;99916.44;;;15.84;100.00
42433;BME280;28071;48.232;20.668;2023-09-18T02:43:09;99910.44;;;15.76;100.00
42433;BME280;28071;48.232;20.668;2023-09-18T02:48:09;99920.50;;;15.69;100.00
42433;BME280;28071;48.232;20.668;2023-09-18T02:53:21;99899.84;;;15.41;100.00
42433;BME280;28071;48.232;20.668;2023-09-18T02:58:22;99926.81;;;15.63;100.00
42433;BME280;28071;48.232;20.668;2023-09-18T03:03:23;99940.56;;;15.67;100.00
42433;BME280;28071;48.232;20.668;2023-09-18T03:08:23;99933.56;;;15.37;100.00
42433;BME280;28071;48.232;20.668;2023-09-18T03:13:26;99884.28;;;15.10;100.00
42433;BME280;28071;48.232;20.668;2023-09-18T03:18:27;99938.53;;;15.45;100.00
42433;BME280;28071;48.232;20.668;2023-09-18T03:23:27;99909.00;;;15.00;100.00
42433;BME280;28071;48.232;20.668;2023-09-18T03:28:28;99938.91;;;15.09;100.00
42433;BME280;28071;48.232;20.668;2023-09-18T03:33:28;99933.91;;;15.12;100.00
42433;BME280;28071;48.232;20.668;2023-09-18T03:38:28;99928.00;;;14.98;100.00
42433;BME280;28071;48.232;20.668;2023-09-18T03:43:30;99933.47;;;14.92;100.00
42433;BME280;28071;48.232;20.668;2023-09-18T03:48:30;99861.50;;;14.43;100.00
42433;BME280;28071;48.232;20.668;2023-09-18T03:53:36;99927.69;;;14.83;100.00
42433;BME280;28071;48.232;20.668;2023-09-18T03:58:37;99929.19;;;14.79;100.00
42433;BME280;28071;48.232;20.668;2023-09-18T04:03:37;99916.66;;;14.68;100.00
42433;BME280;28071;48.232;20.668;2023-09-18T04:08:37;99914.66;;;14.75;100.00
42433;BME280;28071;48.232;20.668;2023-09-18T04:13:38;99920.38;;;14.67;100.00
42433;BME280;28071;48.232;20.668;2023-09-18T04:18:38;99888.63;;;14.59;100.00
42433;BME280;28071;48.232;20.668;2023-09-18T04:23:38;99905.00;;;14.62;100.00
42433;BME280;28071;48.232;20.668;2023-09-18T04:28:39;99896.19;;;14.50;100.00
42433;BME280;28071;48.232;20.668;2023-09-18T04:33:39;99914.34;;;14.60;100.00
42433;BME280;28071;48.232;20.668;2023-09-18T04:38:39;99909.34;;;14.52;100.00
42433;BME280;28071;48.232;20.668;2023-09-18T04:43:40;99902.91;;;14.41;100.00
42433;BME280;28071;48.232;20.668;2023-09-18T04:48:42;99918.53;;;14.56;100.00
42433;BME280;28071;48.232;20.668;2023-09-18T04:53:43;99908.06;;;14.54;100.00
42433;BME280;28071;48.232;20.668;2023-09-18T04:58:43;99923.50;;;14.64;100.00
42433;BME280;28071;48.232;20.668;2023-09-18T05:03:44;99894.63;;;14.66;100.00
42433;BME280;28071;48.232;20.668;2023-09-18T05:08:45;99881.38;;;14.71;100.00
42433;BME280;28071;48.232;20.668;2023-09-18T05:13:45;99908.19;;;14.99;100.00
42433;BME280;28071;48.232;20.668;2023-09-18T05:18:46;99914.59;;;16.73;100.00
42433;BME280;28071;48.232;20.668;2023-09-18T05:23:46;99940.81;;;17.32;100.00
42433;BME280;28071;48.232;20.668;2023-09-18T05:28:47;99893.88;;;17.44;100.00
42433;BME280;28071;48.232;20.668;2023-09-18T05:33:47;99908.16;;;18.04;100.00
42433;BME280;28071;48.232;20.668;2023-09-18T05:38:48;99919.06;;;18.24;100.00
42433;BME280;28071;48.232;20.668;2023-09-18T05:43:49;99924.78;;;18.33;100.00
42433;BME280;28071;48.232;20.668;2023-09-18T05:48:49;99916.38;;;18.24;100.00
42433;BME280;28071;48.232;20.668;2023-09-18T05:53:50;99895.56;;;18.10;100.00
42433;BME280;28071;48.232;20.668;2023-09-18T05:58:50;99902.38;;;18.27;100.00
42433;BME280;28071;48.232;20.668;2023-09-18T06:03:51;99927.28;;;18.45;100.00
42433;BME280;28071;48.232;20.668;2023-09-18T06:08:52;99893.78;;;18.25;100.00
42433;BME280;28071;48.232;20.668;2023-09-18T06:13:53;99903.25;;;18.33;100.00
42433;BME280;28071;48.232;20.668;2023-09-18T06:18:54;99896.78;;;18.34;100.00
42433;BME280;28071;48.232;20.668;2023-09-18T06:23:56;99900.88;;;18.42;100.00
42433;BME280;28071;48.232;20.668;2023-09-18T06:28:56;99931.50;;;18.73;100.00
42433;BME280;28071;48.232;20.668;2023-09-18T06:33:57;99905.28;;;18.63;100.00
42433;BME280;28071;48.232;20.668;2023-09-18T06:38:57;99921.72;;;18.62;100.00
42433;BME280;28071;48.232;20.668;2023-09-18T06:43:58;99900.94;;;18.52;100.00
42433;BME280;28071;48.232;20.668;2023-09-18T06:49:00;99890.44;;;18.55;100.00
42433;BME280;28071;48.232;20.668;2023-09-18T06:54:01;99906.09;;;18.64;100.00
42433;BME280;28071;48.232;20.668;2023-09-18T06:59:02;99927.47;;;18.70;100.00
42433;BME280;28071;48.232;20.668;2023-09-18T07:04:03;99922.19;;;18.91;100.00
42433;BME280;28071;48.232;20.668;2023-09-18T07:09:04;99871.97;;;18.69;100.00
42433;BME280;28071;48.232;20.668;2023-09-18T07:14:07;99907.88;;;18.90;100.00
42433;BME280;28071;48.232;20.668;2023-09-18T07:19:08;99909.06;;;19.25;100.00
42433;BME280;28071;48.232;20.668;2023-09-18T07:24:11;99919.59;;;19.26;100.00
42433;BME280;28071;48.232;20.668;2023-09-18T07:29:16;99909.59;;;19.27;100.00
42433;BME280;28071;48.232;20.668;2023-09-18T07:34:17;99892.09;;;19.29;100.00
42433;BME280;28071;48.232;20.668;2023-09-18T07:39:17;99862.16;;;19.31;100.00
42433;BME280;28071;48.232;20.668;2023-09-18T07:44:21;99939.69;;;20.12;100.00
42433;BME280;28071;48.232;20.668;2023-09-18T07:49:27;99826.59;;;19.75;100.00
42433;BME280;28071;48.232;20.668;2023-09-18T07:54:35;99925.84;;;20.69;100.00
42433;BME280;28071;48.232;20.668;2023-09-18T07:59:36;99859.97;;;20.50;100.00
42433;BME280;28071;48.232;20.668;2023-09-18T08:04:36;99886.22;;;21.04;100.00
42433;BME280;28071;48.232;20.668;2023-09-18T08:09:37;99888.31;;;21.17;100.00
42433;BME280;28071;48.232;20.668;2023-09-18T08:14:37;99896.31;;;21.43;100.00
42433;BME280;28071;48.232;20.668;2023-09-18T08:19:37;99889.88;;;21.73;100.00
42433;BME280;28071;48.232;20.668;2023-09-18T08:24:39;99897.28;;;21.91;100.00
42433;BME280;28071;48.232;20.668;2023-09-18T08:29:40;99919.09;;;22.39;100.00
42433;BME280;28071;48.232;20.668;2023-09-18T08:34:40;99901.34;;;22.76;100.00
42433;BME280;28071;48.232;20.668;2023-09-18T08:39:41;99912.44;;;23.22;100.00
42433;BME280;28071;48.232;20.668;2023-09-18T08:44:43;99914.84;;;23.42;100.00
42433;BME280;28071;48.232;20.668;2023-09-18T08:49:49;99907.38;;;23.72;100.00
42433;BME280;28071;48.232;20.668;2023-09-18T08:54:51;99882.50;;;23.65;100.00
42433;BME280;28071;48.232;20.668;2023-09-18T08:59:54;99871.69;;;24.11;100.00
42433;BME280;28071;48.232;20.668;2023-09-18T09:04:57;99881.91;;;24.47;100.00
42433;BME280;28071;48.232;20.668;2023-09-18T09:09:58;99878.09;;;24.61;100.00
42433;BME280;28071;48.232;20.668;2023-09-18T09:15:03;99853.28;;;24.77;100.00
42433;BME280;28071;48.232;20.668;2023-09-18T09:20:11;99862.41;;;25.44;96.95
42433;BME280;28071;48.232;20.668;2023-09-18T09:25:26;99870.97;;;25.96;89.86
42433;BME280;28071;48.232;20.668;2023-09-18T09:30:28;99843.88;;;26.22;83.60
42433;BME280;28071;48.232;20.668;2023-09-18T09:35:30;99860.69;;;26.55;80.88
42433;BME280;28071;48.232;20.668;2023-09-18T09:40:31;99833.06;;;26.48;79.33
42433;BME280;28071;48.232;20.668;2023-09-18T09:45:32;99837.81;;;26.91;75.86
42433;BME280;28071;48.232;20.668;2023-09-18T09:50:48;99841.38;;;27.26;74.61
42433;BME280;28071;48.232;20.668;2023-09-18T09:55:54;99830.31;;;27.31;73.88
42433;BME280;28071;48.232;20.668;2023-09-18T10:00:56;99811.81;;;27.20;72.21
42433;BME280;28071;48.232;20.668;2023-09-18T10:06:00;99846.28;;;28.02;70.79
42433;BME280;28071;48.232;20.668;2023-09-18T10:11:06;99840.34;;;28.00;69.67
42433;BME280;28071;48.232;20.668;2023-09-18T10:16:12;99830.06;;;27.97;69.01
42433;BME280;28071;48.232;20.668;2023-09-18T10:21:20;99773.47;;;27.89;66.95
42433;BME280;28071;48.232;20.668;2023-09-18T10:26:25;99817.38;;;27.92;66.69
42433;BME280;28071;48.232;20.668;2023-09-18T10:31:29;99799.09;;;27.76;67.14
42433;BME280;28071;48.232;20.668;2023-09-18T10:36:33;99781.81;;;27.92;66.93
42433;BME280;28071;48.232;20.668;2023-09-18T10:41:35;99799.06;;;28.23;65.94
42433;BME280;28071;48.232;20.668;2023-09-18T10:46:36;99797.69;;;28.96;63.39
42433;BME280;28071;48.232;20.668;2023-09-18T10:51:38;99779.78;;;29.53;60.05
42433;BME280;28071;48.232;20.668;2023-09-18T10:56:42;99768.09;;;29.44;59.08
42433;BME280;28071;48.232;20.668;2023-09-18T11:01:43;99786.47;;;29.43;59.15
42433;BME280;28071;48.232;20.668;2023-09-18T11:17:03;99748.56;;;28.20;60.45
42433;BME280;28071;48.232;20.668;2023-09-18T11:22:07;99778.56;;;27.44;63.34
42433;BME280;28071;48.232;20.668;2023-09-18T11:27:11;99759.75;;;27.33;63.03
42433;BME280;28071;48.232;20.668;2023-09-18T11:32:12;99732.19;;;27.09;64.22
42433;BME280;28071;48.232;20.668;2023-09-18T11:37:22;99762.66;;;27.02;63.50
42433;BME280;28071;48.232;20.668;2023-09-18T11:42:23;99760.25;;;27.44;63.31
42433;BME280;28071;48.232;20.668;2023-09-18T11:47:26;99753.94;;;27.52;64.33
42433;BME280;28071;48.232;20.668;2023-09-18T11:52:29;99747.91;;;26.77;63.25
42433;BME280;28071;48.232;20.668;2023-09-18T11:57:35;99711.59;;;27.12;65.54
42433;BME280;28071;48.232;20.668;2023-09-18T12:02:35;99740.00;;;27.36;66.02
42433;BME280;28071;48.232;20.668;2023-09-18T12:07:39;99708.56;;;27.22;65.12
42433;BME280;28071;48.232;20.668;2023-09-18T12:12:44;99696.81;;;27.13;63.70
42433;BME280;28071;48.232;20.668;2023-09-18T12:17:45;99722.03;;;26.92;62.78
42433;BME280;28071;48.232;20.668;2023-09-18T12:22:50;99670.00;;;27.15;62.45
42433;BME280;28071;48.232;20.668;2023-09-18T12:27:52;99704.06;;;27.08;62.03
42433;BME280;28071;48.232;20.668;2023-09-18T12:32:57;99712.97;;;27.52;63.57
42433;BME280;28071;48.232;20.668;2023-09-18T12:38:00;99657.00;;;27.67;60.75
42433;BME280;28071;48.232;20.668;2023-09-18T12:43:01;99677.31;;;27.40;59.98
42433;BME280;28071;48.232;20.668;2023-09-18T12:48:03;99690.28;;;27.60;60.67
42433;BME280;28071;48.232;20.668;2023-09-18T12:53:14;99662.50;;;27.88;61.45
42433;BME280;28071;48.232;20.668;2023-09-18T12:58:19;99694.47;;;27.96;60.49
42433;BME280;28071;48.232;20.668;2023-09-18T13:03:19;99667.84;;;27.84;61.23
42433;BME280;28071;48.232;20.668;2023-09-18T13:08:23;99674.16;;;28.06;60.49
42433;BME280;28071;48.232;20.668;2023-09-18T13:13:24;99655.69;;;27.64;62.62
42433;BME280;28071;48.232;20.668;2023-09-18T13:18:25;99613.75;;;27.60;61.65
42433;BME280;28071;48.232;20.668;2023-09-18T13:23:30;99609.50;;;27.80;61.20
42433;BME280;28071;48.232;20.668;2023-09-18T13:28:32;99653.50;;;27.87;62.29
42433;BME280;28071;48.232;20.668;2023-09-18T13:33:40;99621.38;;;27.84;62.06
42433;BME280;28071;48.232;20.668;2023-09-18T13:38:41;99615.44;;;28.03;60.83
42433;BME280;28071;48.232;20.668;2023-09-18T13:43:41;99623.97;;;28.52;59.77
42433;BME280;28071;48.232;20.668;2023-09-18T13:48:42;99608.41;;;28.44;59.26
42433;BME280;28071;48.232;20.668;2023-09-18T13:53:43;99605.22;;;28.96;58.30
42433;BME280;28071;48.232;20.668;2023-09-18T13:58:43;99596.13;;;29.28;57.19
42433;BME280;28071;48.232;20.668;2023-09-18T14:03:44;99595.09;;;29.82;54.31
42433;BME280;28071;48.232;20.668;2023-09-18T14:08:45;99576.56;;;29.91;51.86
42433;BME280;28071;48.232;20.668;2023-09-18T14:13:45;99566.88;;;30.34;51.58
42433;BME280;28071;48.232;20.668;2023-09-18T14:18:47;99559.28;;;30.15;52.22
42433;BME280;28071;48.232;20.668;2023-09-18T14:23:48;99580.81;;;30.41;51.40
42433;BME280;28071;48.232;20.668;2023-09-18T14:28:49;99547.53;;;30.02;51.51
42433;BME280;28071;48.232;20.668;2023-09-18T14:33:49;99536.88;;;29.73;52.44
42433;BME280;28071;48.232;20.668;2023-09-18T14:38:50;99527.75;;;29.56;53.48
42433;BME280;28071;48.232;20.668;2023-09-18T14:43:51;99548.56;;;29.98;52.05
42433;BME280;28071;48.232;20.668;2023-09-18T14:48:52;99529.63;;;30.33;51.40
42433;BME280;28071;48.232;20.668;2023-09-18T14:53:52;99539.41;;;30.46;49.80
42433;BME280;28071;48.232;20.668;2023-09-18T14:58:54;99552.69;;;30.60;51.97
42433;BME280;28071;48.232;20.668;2023-09-18T15:03:55;99517.00;;;30.04;51.02
42433;BME280;28071;48.232;20.668;2023-09-18T15:08:56;99503.25;;;29.88;52.50
42433;BME280;28071;48.232;20.668;2023-09-18T15:13:57;99513.78;;;29.74;57.09
42433;BME280;28071;48.232;20.668;2023-09-18T15:18:57;99508.78;;;29.39;61.43
42433;BME280;28071;48.232;20.668;2023-09-18T15:24:04;99490.47;;;28.70;65.54
42433;BME280;28071;48.232;20.668;2023-09-18T15:29:05;99499.34;;;27.80;70.89
42433;BME280;28071;48.232;20.668;2023-09-18T15:34:10;99505.91;;;26.99;74.32
42433;BME280;28071;48.232;20.668;2023-09-18T15:39:11;99511.69;;;26.16;79.05
42433;BME280;28071;48.232;20.668;2023-09-18T15:44:11;99504.63;;;25.71;81.68
42433;BME280;28071;48.232;20.668;2023-09-18T15:49:14;99454.06;;;24.82;85.18
42433;BME280;28071;48.232;20.668;2023-09-18T15:54:15;99460.47;;;24.24;88.68
42433;BME280;28071;48.232;20.668;2023-09-18T15:59:17;99439.25;;;23.82;92.17
42433;BME280;28071;48.232;20.668;2023-09-18T16:04:17;99443.59;;;23.55;94.99
42433;BME280;28071;48.232;20.668;2023-09-18T16:09:19;99417.88;;;23.03;96.60
42433;BME280;28071;48.232;20.668;2023-09-18T16:14:21;99443.09;;;23.03;96.44
42433;BME280;28071;48.232;20.668;2023-09-18T16:19:24;99457.72;;;22.75;100.00
42433;BME280;28071;48.232;20.668;2023-09-18T16:24:27;99412.88;;;22.22;100.00
42433;BME280;28071;48.232;20.668;2023-09-18T16:29:28;99448.09;;;22.22;100.00
42433;BME280;28071;48.232;20.668;2023-09-18T16:34:28;99426.31;;;21.76;100.00
42433;BME280;28071;48.232;20.668;2023-09-18T16:39:48;99413.84;;;21.42;100.00
42433;BME280;28071;48.232;20.668;2023-09-18T16:44:49;99435.13;;;21.49;100.00
42433;BME280;28071;48.232;20.668;2023-09-18T16:49:50;99434.16;;;21.16;100.00
42433;BME280;28071;48.232;20.668;2023-09-18T16:54:51;99392.00;;;20.72;100.00
42433;BME280;28071;48.232;20.668;2023-09-18T16:59:52;99427.06;;;20.77;100.00
42433;BME280;28071;48.232;20.668;2023-09-18T17:04:53;99329.28;;;19.98;100.00
42433;BME280;28071;48.232;20.668;2023-09-18T17:09:54;99392.38;;;20.07;100.00
42433;BME280;28071;48.232;20.668;2023-09-18T17:14:55;99354.94;;;19.66;100.00
42433;BME280;28071;48.232;20.668;2023-09-18T17:19:56;99376.41;;;19.82;100.00
42433;BME280;28071;48.232;20.668;2023-09-18T17:24:57;99407.97;;;19.81;100.00
42433;BME280;28071;48.232;20.668;2023-09-18T17:30:00;99353.63;;;19.20;100.00
42433;BME280;28071;48.232;20.668;2023-09-18T17:35:02;99381.41;;;19.15;100.00
42433;BME280;28071;48.232;20.668;2023-09-18T17:40:06;99417.47;;;19.24;100.00
42433;BME280;28071;48.232;20.668;2023-09-18T17:45:08;99385.88;;;18.80;100.00
42433;BME280;28071;48.232;20.668;2023-09-18T17:50:09;99362.47;;;18.61;100.00
42433;BME280;28071;48.232;20.668;2023-09-18T17:55:16;99374.06;;;18.51;100.00
42433;BME280;28071;48.232;20.668;2023-09-18T18:00:20;99399.63;;;18.58;100.00
42433;BME280;28071;48.232;20.668;2023-09-18T18:05:21;99389.19;;;18.47;100.00
42433;BME280;28071;48.232;20.668;2023-09-18T18:10:22;99402.97;;;18.25;100.00
42433;BME280;28071;48.232;20.668;2023-09-18T18:15:23;99370.94;;;18.13;100.00
42433;BME280;28071;48.232;20.668;2023-09-18T18:20:24;99410.78;;;18.21;100.00
42433;BME280;28071;48.232;20.668;2023-09-18T18:25:24;99427.44;;;18.39;100.00
42433;BME280;28071;48.232;20.668;2023-09-18T18:30:26;99409.72;;;18.02;100.00
42433;BME280;28071;48.232;20.668;2023-09-18T18:35:28;99393.28;;;17.98;100.00
42433;BME280;28071;48.232;20.668;2023-09-18T18:40:29;99398.13;;;17.86;100.00
42433;BME280;28071;48.232;20.668;2023-09-18T18:45:30;99373.94;;;17.71;100.00
42433;BME280;28071;48.232;20.668;2023-09-18T18:50:31;99410.25;;;17.84;100.00
42433;BME280;28071;48.232;20.668;2023-09-18T18:55:37;99419.66;;;17.81;100.00
42433;BME280;28071;48.232;20.668;2023-09-18T19:00:38;99420.47;;;17.92;100.00
42433;BME280;28071;48.232;20.668;2023-09-18T19:05:41;99373.88;;;17.56;100.00
42433;BME280;28071;48.232;20.668;2023-09-18T19:10:44;99359.63;;;17.55;100.00
42433;BME280;28071;48.232;20.668;2023-09-18T19:15:44;99321.69;;;17.16;100.00
42433;BME280;28071;48.232;20.668;2023-09-18T19:20:49;99384.34;;;17.42;100.00
42433;BME280;28071;48.232;20.668;2023-09-18T19:25:54;99392.69;;;17.51;100.00
42433;BME280;28071;48.232;20.668;2023-09-18T19:30:56;99361.19;;;17.20;100.00
42433;BME280;28071;48.232;20.668;2023-09-18T19:35:59;99370.56;;;17.13;100.00
42433;BME280;28071;48.232;20.668;2023-09-18T19:41:00;99383.75;;;17.09;100.00
42433;BME280;28071;48.232;20.668;2023-09-18T19:46:00;99392.88;;;17.13;100.00
42433;BME280;28071;48.232;20.668;2023-09-18T19:51:03;99382.91;;;17.04;100.00
42433;BME280;28071;48.232;20.668;2023-09-18T19:56:04;99373.00;;;17.09;100.00
42433;BME280;28071;48.232;20.668;2023-09-18T20:01:06;99383.75;;;17.09;100.00
42433;BME280;28071;48.232;20.668;2023-09-18T20:06:07;99352.00;;;17.01;100.00
42433;BME280;28071;48.232;20.668;2023-09-18T20:16:32;99347.44;;;17.02;100.00
42433;BME280;28071;48.232;20.668;2023-09-18T20:21:33;99334.25;;;16.95;100.00
42433;BME280;28071;48.232;20.668;2023-09-18T20:26:35;99365.50;;;17.16;100.00
42433;BME280;28071;48.232;20.668;2023-09-18T20:31:36;99345.06;;;17.15;100.00
42433;BME280;28071;48.232;20.668;2023-09-18T20:36:36;99316.03;;;17.12;100.00
42433;BME280;28071;48.232;20.668;2023-09-18T20:41:38;99299.91;;;17.12;100.00
42433;BME280;28071;48.232;20.668;2023-09-18T20:46:39;99327.88;;;17.42;100.00
42433;BME280;28071;48.232;20.668;2023-09-18T20:51:39;99319.81;;;17.37;100.00
42433;BME280;28071;48.232;20.668;2023-09-18T20:56:40;99316.88;;;17.48;100.00
42433;BME280;28071;48.232;20.668;2023-09-18T21:01:40;99339.47;;;17.58;100.00
42433;BME280;28071;48.232;20.668;2023-09-18T21:06:43;99311.78;;;17.47;100.00
42433;BME280;28071;48.232;20.668;2023-09-18T21:11:43;99335.69;;;17.59;100.00
42433;BME280;28071;48.232;20.668;2023-09-18T21:16:44;99320.38;;;17.54;100.00
42433;BME280;28071;48.232;20.668;2023-09-18T21:21:45;99333.81;;;17.59;100.00
42433;BME280;28071;48.232;20.668;2023-09-18T21:26:45;99313.13;;;17.55;100.00
42433;BME280;28071;48.232;20.668;2023-09-18T21:31:46;99287.56;;;17.42;100.00
42433;BME280;28071;48.232;20.668;2023-09-18T21:36:46;99277.06;;;17.45;100.00
42433;BME280;28071;48.232;20.668;2023-09-18T21:41:47;99276.25;;;17.60;100.00
42433;BME280;28071;48.232;20.668;2023-09-18T21:46:47;99277.31;;;17.59;100.00
42433;BME280;28071;48.232;20.668;2023-09-18T21:51:48;99279.22;;;17.64;100.00
42433;BME280;28071;48.232;20.668;2023-09-18T21:56:48;99242.38;;;17.49;100.00
42433;BME280;28071;48.232;20.668;2023-09-18T22:01:49;99251.53;;;17.68;100.00
42433;BME280;28071;48.232;20.668;2023-09-18T22:06:49;99285.25;;;18.36;100.00
42433;BME280;28071;48.232;20.668;2023-09-18T22:11:49;99280.53;;;18.82;100.00
42433;BME280;28071;48.232;20.668;2023-09-18T22:16:50;99284.91;;;19.12;100.00
42433;BME280;28071;48.232;20.668;2023-09-18T22:21:50;99259.66;;;18.98;100.00
42433;BME280;28071;48.232;20.668;2023-09-18T22:26:51;99277.56;;;19.23;100.00
42433;BME280;28071;48.232;20.668;2023-09-18T22:31:51;99281.63;;;19.20;100.00
42433;BME280;28071;48.232;20.668;2023-09-18T22:36:53;99269.75;;;19.21;100.00
42433;BME280;28071;48.232;20.668;2023-09-18T22:57:41;99209.88;;;18.90;100.00
42433;BME280;28071;48.232;20.668;2023-09-18T23:02:44;99245.72;;;19.25;100.00
42433;BME280;28071;48.232;20.668;2023-09-18T23:07:58;99218.53;;;19.21;100.00
42433;BME280;28071;48.232;20.668;2023-09-18T23:13:07;99235.84;;;19.44;100.00
42433;BME280;28071;48.232;20.668;2023-09-18T23:18:09;99240.16;;;19.45;100.00
42433;BME280;28071;48.232;20.668;2023-09-18T23:23:10;99215.69;;;19.36;100.00
42433;BME280;28071;48.232;20.668;2023-09-18T23:28:11;99230.28;;;19.64;100.00
42433;BME280;28071;48.232;20.668;2023-09-18T23:33:15;99196.72;;;19.76;100.00
42433;BME280;28071;48.232;20.668;2023-09-18T23:38:15;99215.41;;;19.96;100.00
42433;BME280;28071;48.232;20.668;2023-09-18T23:43:18;99212.16;;;19.94;100.00
42433;BME280;28071;48.232;20.668;2023-09-18T23:48:20;99204.22;;;19.79;100.00
42433;BME280;28071;48.232;20.668;2023-09-18T23:53:23;99191.19;;;19.62;100.00
42433;BME280;28071;48.232;20.668;2023-09-18T23:58:24;99211.81;;;19.77;100.00
